Time;durP1;ratioP1;P1;durP2;ratioP2;P2;SDS_P1;SDS_P2;PMS_P1;PMS_P2;Temp;Humidity;BMP_temperature;BMP_pressure;BME280_temperature;BME280_humidity;BME280_pressure;Samples;Min_cycle;Max_cycle;Signal;HPM_P1;HPM_P2
2023/01/25 00:00:08;;;;;;;52.63;35.30;;;0.90;99.90;;;;;;5049246;28;20044;-53
2023/01/25 00:02:34;;;;;;;58.30;37.25;;;0.90;99.90;;;;;;5050081;28;20048;-58
2023/01/25 00:04:59;;;;;;;55.30;36.25;;;0.90;99.90;;;;;;5045589;28;20037;-58
2023/01/25 00:07:25;;;;;;;54.77;37.40;;;0.90;99.90;;;;;;5046412;28;20292;-56
2023/01/25 00:09:50;;;;;;;60.53;40.17;;;0.80;99.90;;;;;;5048796;28;20033;-53
2023/01/25 00:12:16;;;;;;;58.00;38.10;;;0.80;99.90;;;;;;5049865;28;20036;-56
2023/01/25 00:14:42;;;;;;;59.20;38.07;;;0.80;99.90;;;;;;5049242;28;20045;-55
2023/01/25 00:17:07;;;;;;;50.13;35.63;;;0.80;99.90;;;;;;5048976;28;20405;-53
2023/01/25 00:19:33;;;;;;;54.20;37.57;;;0.80;99.90;;;;;;5049417;28;20045;-54
2023/01/25 00:21:58;;;;;;;52.87;36.40;;;0.80;99.90;;;;;;5049089;28;20040;-56
2023/01/25 00:24:24;;;;;;;56.73;37.50;;;0.80;99.90;;;;;;5047738;28;20562;-58
2023/01/25 00:26:50;;;;;;;57.67;38.22;;;0.80;99.90;;;;;;5049530;28;20040;-57
2023/01/25 00:29:16;;;;;;;59.13;38.17;;;0.80;99.90;;;;;;5049099;28;20040;-57
2023/01/25 00:31:48;;;;;;;54.67;37.80;;;0.80;99.90;;;;;;5049153;28;20045;-55
2023/01/25 00:34:25;;;;;;;52.50;35.67;;;0.80;99.90;;;;;;5048241;28;20558;-55
2023/01/25 00:36:54;;;;;;;53.67;36.25;;;0.80;99.90;;;;;;5047620;28;20044;-57
2023/01/25 00:39:19;;;;;;;49.55;34.85;;;0.80;99.90;;;;;;5049524;28;20037;-57
2023/01/25 00:41:45;;;;;;;50.53;34.87;;;0.80;99.90;;;;;;5048870;28;20053;-56
2023/01/25 00:44:10;;;;;;;51.63;35.00;;;0.80;99.90;;;;;;5047528;28;20425;-53
2023/01/25 00:46:36;;;;;;;54.13;33.50;;;0.80;99.90;;;;;;5049081;28;20448;-54
2023/01/25 00:49:02;;;;;;;54.23;36.93;;;0.80;99.90;;;;;;5048555;28;20043;-57
2023/01/25 00:51:27;;;;;;;52.57;33.63;;;0.80;99.90;;;;;;5048148;28;20037;-57
2023/01/25 00:53:53;;;;;;;50.77;34.07;;;0.80;99.90;;;;;;5046128;28;20053;-59
2023/01/25 00:56:19;;;;;;;50.55;35.03;;;0.80;99.90;;;;;;5048818;28;20486;-57
2023/01/25 00:58:45;;;;;;;49.22;33.83;;;0.80;99.90;;;;;;5048110;28;20033;-54
2023/01/25 01:01:11;;;;;;;47.13;31.83;;;0.80;99.90;;;;;;5048638;28;20079;-57
2023/01/25 01:03:37;;;;;;;46.25;34.28;;;0.80;99.90;;;;;;5047997;28;20041;-56
2023/01/25 01:06:05;;;;;;;52.45;35.80;;;0.70;99.90;;;;;;5048139;28;20055;-58
2023/01/25 01:08:37;;;;;;;52.08;34.90;;;0.70;99.90;;;;;;5045941;28;20029;-55
2023/01/25 01:11:05;;;;;;;54.90;35.58;;;0.70;99.90;;;;;;5048536;28;20490;-58
2023/01/25 01:13:32;;;;;;;50.47;34.20;;;0.70;99.90;;;;;;5047384;28;20124;-57
2023/01/25 01:16:01;;;;;;;51.28;32.70;;;0.70;99.90;;;;;;5048714;28;20044;-56
2023/01/25 01:18:27;;;;;;;47.35;32.63;;;0.70;99.90;;;;;;5047544;28;20082;-53
2023/01/25 01:20:54;;;;;;;50.72;33.92;;;0.70;99.90;;;;;;5048228;28;20513;-53
2023/01/25 01:23:19;;;;;;;54.75;35.85;;;0.70;99.90;;;;;;5047490;28;20033;-55
2023/01/25 01:25:46;;;;;;;49.60;33.08;;;0.70;99.90;;;;;;5048219;28;20033;-57
2023/01/25 01:28:12;;;;;;;50.80;33.55;;;0.70;99.90;;;;;;5047878;28;20029;-53
2023/01/25 01:30:38;;;;;;;49.78;33.92;;;0.70;99.90;;;;;;5048540;28;20116;-54
2023/01/25 01:33:04;;;;;;;54.17;36.10;;;0.70;99.90;;;;;;5047030;28;20045;-59
2023/01/25 01:35:31;;;;;;;52.15;36.33;;;0.70;99.90;;;;;;5048274;28;20047;-58
2023/01/25 01:37:57;;;;;;;52.00;33.38;;;0.70;99.90;;;;;;5047941;28;20032;-56
2023/01/25 01:40:23;;;;;;;50.38;34.28;;;0.70;99.90;;;;;;5048763;28;20025;-56
2023/01/25 01:42:59;;;;;;;55.15;34.92;;;0.70;99.90;;;;;;5048074;28;20037;-55
2023/01/25 01:45:53;;;;;;;57.65;37.33;;;0.70;99.90;;;;;;5047637;28;20516;-58
2023/01/25 01:48:25;;;;;;;53.38;35.10;;;0.70;99.90;;;;;;5047682;28;20037;-56
2023/01/25 01:50:54;;;;;;;51.13;35.30;;;0.70;99.90;;;;;;5046970;28;20041;-57
2023/01/25 01:53:23;;;;;;;60.88;38.33;;;0.70;99.90;;;;;;5045772;28;20052;-56
2023/01/25 01:55:50;;;;;;;60.03;39.00;;;0.70;99.90;;;;;;5046752;28;20103;-57
2023/01/25 01:58:17;;;;;;;56.47;37.10;;;0.70;99.90;;;;;;5051246;28;20044;-53
2023/01/25 02:00:42;;;;;;;60.55;40.10;;;0.70;99.90;;;;;;5052121;28;20041;-53
2023/01/25 02:03:10;;;;;;;58.07;38.10;;;0.70;99.90;;;;;;5051371;28;20041;-54
2023/01/25 02:06:06;;;;;;;59.10;37.90;;;0.70;99.90;;;;;;5049089;28;20067;-56
2023/01/25 02:08:35;;;;;;;61.65;38.40;;;0.70;99.90;;;;;;5051446;28;20430;-56
2023/01/25 02:11:03;;;;;;;60.60;39.05;;;0.70;99.90;;;;;;5050042;28;20090;-54
2023/01/25 02:13:30;;;;;;;62.72;39.67;;;0.80;99.90;;;;;;5050775;28;20376;-59
2023/01/25 02:15:56;;;;;;;61.95;38.85;;;0.70;99.90;;;;;;5051774;28;20525;-55
2023/01/25 02:18:23;;;;;;;58.88;38.20;;;0.70;99.90;;;;;;5051228;28;20115;-56
2023/01/25 02:20:54;;;;;;;;;;;0.70;99.90;;;;;;5050814;28;20471;-55
2023/01/25 02:23:46;;;;;;;60.75;38.17;;;0.70;99.90;;;;;;5050866;28;20007;-53
2023/01/25 02:26:13;;;;;;;63.42;40.45;;;0.70;99.90;;;;;;5051617;28;20503;-58
2023/01/25 02:28:42;;;;;;;;;;;0.60;99.90;;;;;;5052041;28;20075;-57
2023/01/25 02:31:08;;;;;;;63.65;38.90;;;0.70;99.90;;;;;;5051572;28;19920;-55
2023/01/25 02:33:34;;;;;;;56.80;37.55;;;0.70;99.90;;;;;;5049599;28;20593;-55
2023/01/25 02:36:23;;;;;;;60.67;37.97;;;0.70;99.90;;;;;;5051169;28;20120;-58
2023/01/25 02:39:05;;;;;;;59.80;39.00;;;0.60;99.90;;;;;;5050602;28;20418;-54
2023/01/25 02:41:39;;;;;;;60.80;38.47;;;0.60;99.90;;;;;;5049920;28;20037;-55
2023/01/25 02:44:12;;;;;;;56.55;37.22;;;0.60;99.90;;;;;;5049891;28;20037;-56
2023/01/25 02:46:39;;;;;;;57.72;38.38;;;0.60;99.90;;;;;;5051447;28;20155;-55
2023/01/25 02:49:07;;;;;;;61.33;38.72;;;0.60;99.90;;;;;;5050686;28;20067;-53
2023/01/25 02:51:36;;;;;;;60.70;38.35;;;0.60;99.90;;;;;;5051210;28;20456;-57
2023/01/25 02:54:05;;;;;;;60.72;39.60;;;0.60;99.90;;;;;;5050076;28;20091;-58
2023/01/25 02:56:31;;;;;;;62.15;40.85;;;0.60;99.90;;;;;;5050394;28;20381;-56
2023/01/25 02:58:56;;;;;;;58.20;38.58;;;0.60;99.90;;;;;;5050800;28;20179;-57
2023/01/25 03:01:22;;;;;;;61.85;38.92;;;0.60;99.90;;;;;;5050774;28;20513;-55
2023/01/25 03:03:48;;;;;;;62.85;40.75;;;0.60;99.90;;;;;;5049898;28;20115;-56
2023/01/25 03:06:13;;;;;;;61.80;40.10;;;0.60;99.90;;;;;;5050867;28;20036;-55
2023/01/25 03:08:39;;;;;;;59.17;39.27;;;0.60;99.90;;;;;;5049692;28;20068;-56
2023/01/25 03:11:06;;;;;;;61.60;41.95;;;0.60;99.90;;;;;;5050584;28;20519;-57
2023/01/25 03:13:32;;;;;;;;;;;0.60;99.90;;;;;;5050074;28;20041;-56
2023/01/25 03:16:07;;;;;;;58.45;36.90;;;0.60;99.90;;;;;;5050559;28;20386;-56
2023/01/25 03:18:33;;;;;;;55.83;38.22;;;0.60;99.90;;;;;;5048442;28;20484;-53
2023/01/25 03:21:14;;;;;;;54.47;36.15;;;0.60;99.90;;;;;;5050937;28;20053;-57
2023/01/25 03:23:41;;;;;;;54.78;35.50;;;0.60;99.90;;;;;;5049629;28;20045;-59
2023/01/25 03:26:12;;;;;;;61.60;39.53;;;0.60;99.90;;;;;;5050545;28;20049;-53
2023/01/25 03:28:39;;;;;;;55.28;36.78;;;0.60;99.90;;;;;;5049033;28;20033;-56
2023/01/25 03:31:06;;;;;;;60.05;37.00;;;0.50;99.90;;;;;;5050181;28;20063;-56
2023/01/25 03:33:32;;;;;;;55.70;36.08;;;0.50;99.90;;;;;;5049083;28;20064;-58
2023/01/25 03:35:59;;;;;;;59.17;35.67;;;0.50;99.90;;;;;;5049917;28;20049;-58
2023/01/25 03:38:24;;;;;;;55.58;35.85;;;0.50;99.90;;;;;;5050119;28;20040;-59
2023/01/25 03:40:51;;;;;;;54.38;35.83;;;0.40;99.90;;;;;;5065610;28;20041;-55
2023/01/25 03:43:16;;;;;;;55.25;36.95;;;0.40;99.90;;;;;;5049773;28;20372;-55
2023/01/25 03:45:42;;;;;;;52.17;34.90;;;0.40;99.90;;;;;;5049741;28;20102;-54
2023/01/25 03:48:07;;;;;;;57.73;37.27;;;0.40;99.90;;;;;;5049203;28;20037;-55
2023/01/25 03:50:33;;;;;;;54.73;34.80;;;0.40;99.90;;;;;;5049163;28;20040;-56
2023/01/25 03:53:05;;;;;;;50.70;32.67;;;0.40;99.90;;;;;;5049200;28;20036;-57
2023/01/25 03:55:30;;;;;;;50.28;32.83;;;0.40;99.90;;;;;;5046289;28;20044;-53
2023/01/25 03:57:56;;;;;;;50.50;34.50;;;0.40;99.90;;;;;;5049586;28;20136;-53
2023/01/25 04:00:22;;;;;;;49.97;33.43;;;0.40;99.90;;;;;;5050126;28;20091;-56
2023/01/25 04:02:47;;;;;;;51.30;33.87;;;0.40;99.90;;;;;;5049352;28;20045;-56
2023/01/25 04:05:13;;;;;;;52.78;32.45;;;0.40;99.90;;;;;;5048510;28;20274;-56
2023/01/25 04:07:39;;;;;;;50.67;34.25;;;0.40;99.90;;;;;;5049320;28;20067;-54
2023/01/25 04:10:05;;;;;;;50.87;34.47;;;0.30;99.90;;;;;;5049474;28;20036;-57
2023/01/25 04:12:31;;;;;;;54.22;34.33;;;0.30;99.90;;;;;;5049831;28;20047;-55
2023/01/25 04:14:57;;;;;;;51.70;35.03;;;0.30;99.90;;;;;;5048748;28;20406;-54
2023/01/25 04:17:22;;;;;;;52.20;34.60;;;0.30;99.90;;;;;;5048958;28;20033;-57
2023/01/25 04:19:48;;;;;;;48.63;31.93;;;0.40;99.90;;;;;;5047799;28;20131;-54
2023/01/25 04:22:15;;;;;;;54.80;35.55;;;0.30;99.90;;;;;;5049299;28;20464;-56
2023/01/25 04:24:40;;;;;;;;;;;0.30;99.90;;;;;;5048466;28;20049;-54
2023/01/25 04:27:07;;;;;;;46.78;30.98;;;0.30;99.90;;;;;;5049088;28;19917;-53
2023/01/25 04:29:33;;;;;;;55.03;35.97;;;0.30;99.90;;;;;;5050111;28;20048;-57
2023/01/25 04:31:59;;;;;;;54.65;34.70;;;0.30;99.90;;;;;;5049504;28;20576;-54
2023/01/25 04:34:24;;;;;;;54.73;34.87;;;0.30;99.90;;;;;;5047651;28;20072;-54
2023/01/25 04:36:50;;;;;;;51.20;33.83;;;0.30;99.90;;;;;;5049557;28;20124;-54
2023/01/25 04:39:16;;;;;;;50.27;32.70;;;0.30;99.90;;;;;;5048718;28;20487;-56
2023/01/25 04:41:41;;;;;;;47.90;33.20;;;0.30;99.90;;;;;;5049287;28;20068;-57
2023/01/25 04:44:07;;;;;;;48.57;31.87;;;0.30;99.90;;;;;;5047744;28;20288;-54
2023/01/25 04:46:32;;;;;;;51.07;33.53;;;0.30;99.90;;;;;;5048831;28;20037;-56
2023/01/25 04:48:58;;;;;;;52.53;33.57;;;0.30;99.90;;;;;;5048279;28;20029;-57
2023/01/25 04:51:24;;;;;;;50.73;33.93;;;0.30;99.90;;;;;;5049357;28;20095;-55
2023/01/25 04:53:49;;;;;;;51.10;33.67;;;0.30;99.90;;;;;;5048130;28;20041;-54
2023/01/25 04:56:15;;;;;;;51.93;34.27;;;0.30;99.90;;;;;;5048951;28;20506;-56
2023/01/25 04:58:40;;;;;;;53.60;34.20;;;0.30;99.90;;;;;;5048608;28;20033;-58
2023/01/25 05:01:06;;;;;;;52.77;34.73;;;0.30;99.90;;;;;;5048709;28;20073;-57
2023/01/25 05:03:32;;;;;;;50.37;33.70;;;0.20;99.90;;;;;;5047229;28;20486;-58
2023/01/25 05:05:57;;;;;;;51.03;33.63;;;0.20;99.90;;;;;;5049020;28;20122;-53
2023/01/25 05:08:24;;;;;;;52.43;33.23;;;0.30;99.90;;;;;;5048104;28;20510;-58
2023/01/25 05:10:50;;;;;;;52.15;33.42;;;0.30;99.90;;;;;;5046745;28;20401;-56
2023/01/25 05:13:15;;;;;;;46.37;31.67;;;0.30;99.90;;;;;;5047239;28;20029;-53
2023/01/25 05:15:41;;;;;;;52.83;34.00;;;0.30;99.90;;;;;;5048741;28;20432;-59
2023/01/25 05:18:07;;;;;;;54.50;34.07;;;0.40;99.90;;;;;;5047940;28;20044;-56
2023/01/25 05:20:32;;;;;;;52.00;33.57;;;0.40;99.90;;;;;;5048197;28;20041;-57
2023/01/25 05:22:58;;;;;;;55.73;33.73;;;0.40;99.90;;;;;;5047424;28;20041;-55
2023/01/25 05:28:07;;;;;;;50.10;31.88;;;0.40;99.90;;;;;;5044896;28;20053;-56
2023/01/25 05:30:33;;;;;;;52.23;34.13;;;0.40;99.90;;;;;;5045357;28;20037;-56
2023/01/25 05:32:59;;;;;;;49.37;32.63;;;0.50;99.90;;;;;;5048182;28;20237;-56
2023/01/25 05:35:24;;;;;;;48.33;31.90;;;0.50;99.90;;;;;;5047110;28;20036;-55
2023/01/25 05:37:50;;;;;;;50.78;32.92;;;0.50;99.90;;;;;;5047943;28;20029;-54
2023/01/25 05:40:16;;;;;;;46.67;31.30;;;0.50;99.90;;;;;;5048221;28;20635;-56
2023/01/25 05:42:41;;;;;;;50.23;32.77;;;0.50;99.90;;;;;;5046735;28;20033;-53
2023/01/25 05:45:08;;;;;;;47.83;33.63;;;0.50;99.90;;;;;;5047256;28;20043;-55
2023/01/25 05:47:33;;;;;;;;;;;0.40;99.90;;;;;;5047974;28;20695;-53
2023/01/25 05:49:59;;;;;;;48.63;32.17;;;0.40;99.90;;;;;;5048374;28;19928;-55
2023/01/25 05:52:24;;;;;;;47.17;31.33;;;0.40;99.90;;;;;;5048039;28;20395;-55
2023/01/25 05:54:50;;;;;;;51.17;33.43;;;0.40;99.90;;;;;;5047384;28;20083;-58
2023/01/25 05:57:16;;;;;;;50.50;32.47;;;0.40;99.90;;;;;;5047700;28;20060;-56
2023/01/25 05:59:41;;;;;;;46.87;30.50;;;0.40;99.90;;;;;;5046374;28;20052;-58
2023/01/25 06:02:07;;;;;;;49.13;31.27;;;0.40;99.90;;;;;;5046312;28;20033;-56
2023/01/25 06:04:35;;;;;;;49.50;31.20;;;0.40;99.90;;;;;;5046649;28;20037;-56
2023/01/25 06:07:01;;;;;;;44.87;29.90;;;0.40;99.90;;;;;;5047680;28;20036;-56
2023/01/25 06:09:27;;;;;;;45.80;30.50;;;0.40;99.90;;;;;;5047568;28;20041;-57
2023/01/25 06:11:52;;;;;;;45.03;29.83;;;0.40;99.90;;;;;;5047426;28;20380;-57
2023/01/25 06:14:18;;;;;;;43.03;28.80;;;0.40;99.90;;;;;;5046646;28;20040;-57
2023/01/25 06:16:43;;;;;;;49.40;33.00;;;0.40;99.90;;;;;;5047204;28;20044;-53
2023/01/25 06:19:12;;;;;;;41.87;28.80;;;0.40;99.90;;;;;;5047335;28;20058;-53
2023/01/25 06:21:37;;;;;;;45.92;28.90;;;0.40;99.90;;;;;;5044513;28;20098;-55
2023/01/25 06:24:03;;;;;;;43.40;29.80;;;0.40;99.90;;;;;;5046341;28;20501;-57
2023/01/25 06:26:29;;;;;;;44.38;30.13;;;0.40;99.90;;;;;;5046551;28;20041;-59
2023/01/25 06:28:55;;;;;;;45.00;29.30;;;0.40;99.90;;;;;;5046938;28;20037;-56
2023/01/25 06:31:20;;;;;;;42.00;28.63;;;0.40;99.90;;;;;;5047866;28;20036;-53
2023/01/25 06:33:50;;;;;;;41.78;27.92;;;0.40;99.90;;;;;;5044421;28;20040;-56
2023/01/25 06:36:18;;;;;;;40.03;27.63;;;0.30;99.90;;;;;;5047677;28;20037;-56
2023/01/25 06:38:51;;;;;;;43.88;28.30;;;0.40;99.90;;;;;;5047470;28;20089;-56
2023/01/25 06:41:17;;;;;;;44.15;29.98;;;0.30;99.90;;;;;;5045321;28;20041;-56
2023/01/25 06:43:43;;;;;;;39.97;27.83;;;0.40;99.90;;;;;;5049476;28;20123;-54
2023/01/25 06:46:10;;;;;;;42.42;29.90;;;0.40;99.90;;;;;;5051740;28;20483;-54
2023/01/25 06:48:36;;;;;;;43.08;28.83;;;0.40;99.90;;;;;;5051064;28;20122;-54
2023/01/25 06:51:07;;;;;;;40.35;27.60;;;0.40;99.90;;;;;;5051455;28;20575;-56
2023/01/25 06:53:35;;;;;;;43.15;28.65;;;0.40;99.90;;;;;;5049889;28;20048;-55
2023/01/25 06:56:03;;;;;;;43.15;28.08;;;0.40;99.90;;;;;;5050884;28;20052;-57
2023/01/25 06:58:30;;;;;;;38.80;27.55;;;0.40;99.90;;;;;;5048611;28;20036;-57
2023/01/25 07:01:02;;;;;;;44.42;28.95;;;0.40;99.90;;;;;;5047938;28;20045;-56
2023/01/25 07:03:29;;;;;;;47.50;28.73;;;0.40;99.90;;;;;;5050009;28;20502;-56
2023/01/25 07:06:05;;;;;;;42.10;28.58;;;0.40;99.90;;;;;;5051173;28;20029;-57
2023/01/25 07:08:32;;;;;;;44.53;28.95;;;0.40;99.90;;;;;;5049781;28;20037;-56
2023/01/25 07:11:00;;;;;;;42.03;28.90;;;0.40;99.90;;;;;;5049633;28;20098;-55
2023/01/25 07:13:28;;;;;;;45.17;27.02;;;0.40;99.90;;;;;;5049804;28;20043;-52
2023/01/25 07:15:59;;;;;;;44.22;28.10;;;0.40;99.90;;;;;;5047667;28;20446;-57
2023/01/25 07:18:27;;;;;;;46.25;28.88;;;0.30;99.90;;;;;;5048932;28;20119;-55
2023/01/25 07:20:53;;;;;;;44.80;29.25;;;0.30;99.90;;;;;;5050441;28;20492;-59
2023/01/25 07:23:19;;;;;;;43.40;27.75;;;0.30;99.90;;;;;;5049705;28;20111;-55
2023/01/25 07:25:49;;;;;;;43.10;27.75;;;0.30;99.90;;;;;;5047705;28;20426;-58
2023/01/25 07:28:16;;;;;;;42.17;27.77;;;0.30;99.90;;;;;;5050375;28;20029;-57
2023/01/25 07:30:41;;;;;;;;;;;0.20;99.90;;;;;;5049753;28;20033;-54
2023/01/25 07:33:08;;;;;;;44.50;28.38;;;0.30;99.90;;;;;;5050784;28;19931;-58
2023/01/25 07:35:34;;;;;;;43.92;27.88;;;0.20;99.90;;;;;;5049828;28;20047;-57
2023/01/25 07:38:00;;;;;;;45.20;28.17;;;0.20;99.90;;;;;;5049987;28;20041;-54
2023/01/25 07:40:25;;;;;;;44.53;27.93;;;0.20;99.90;;;;;;5052097;28;20490;-56
2023/01/25 07:42:51;;;;;;;43.00;27.93;;;0.20;99.90;;;;;;5034308;28;20038;-60
2023/01/25 07:45:17;;;;;;;43.35;30.45;;;0.20;99.90;;;;;;5029901;28;20394;-59
2023/01/25 07:47:42;;;;;;;45.03;28.17;;;0.20;99.90;;;;;;5038778;28;20041;-57
2023/01/25 07:50:09;;;;;;;44.20;27.87;;;0.20;99.90;;;;;;5049554;28;20128;-55
2023/01/25 07:52:35;;;;;;;47.33;29.23;;;0.20;99.90;;;;;;5050885;28;20517;-58
2023/01/25 07:55:01;;;;;;;44.53;29.17;;;0.20;99.90;;;;;;5048913;28;20033;-51
2023/01/25 07:57:29;;;;;;;44.92;30.70;;;0.20;99.90;;;;;;5050247;28;20119;-52
2023/01/25 07:59:55;;;;;;;44.58;28.45;;;0.20;99.90;;;;;;5051006;28;20155;-56
2023/01/25 08:02:20;;;;;;;45.73;30.37;;;0.20;99.90;;;;;;5050999;28;20045;-56
2023/01/25 08:04:46;;;;;;;44.70;29.67;;;0.20;99.90;;;;;;5049525;28;20033;-56
2023/01/25 08:07:13;;;;;;;45.87;29.23;;;0.20;99.90;;;;;;5050657;28;20048;-56
2023/01/25 08:09:40;;;;;;;49.83;30.23;;;0.20;99.90;;;;;;5050564;28;20473;-55
2023/01/25 08:12:06;;;;;;;43.40;28.45;;;0.20;99.90;;;;;;5050744;28;20051;-58
2023/01/25 08:14:32;;;;;;;46.95;29.63;;;0.20;99.90;;;;;;5048051;28;20140;-58
2023/01/25 08:16:57;;;;;;;39.70;27.67;;;0.20;99.90;;;;;;5050535;28;20554;-53
2023/01/25 08:19:24;;;;;;;41.63;28.67;;;0.20;99.90;;;;;;5049708;28;20502;-55
2023/01/25 08:21:50;;;;;;;42.63;27.52;;;0.20;99.90;;;;;;5050709;28;20630;-56
2023/01/25 08:24:16;;;;;;;41.75;28.65;;;0.20;99.90;;;;;;5048233;28;20037;-57
2023/01/25 08:26:42;;;;;;;47.67;27.77;;;0.20;99.90;;;;;;5049230;28;20348;-52
2023/01/25 08:29:10;;;;;;;47.17;30.92;;;0.20;99.90;;;;;;5050147;28;20291;-52
2023/01/25 08:31:36;;;;;;;46.60;30.27;;;0.20;99.90;;;;;;5050132;28;20382;-56
2023/01/25 08:34:02;;;;;;;41.75;28.98;;;0.20;99.90;;;;;;5043322;28;20037;-58
2023/01/25 08:36:27;;;;;;;48.15;29.48;;;0.10;99.90;;;;;;5038124;28;20052;-56
2023/01/25 08:38:56;;;;;;;46.97;30.70;;;0.10;99.90;;;;;;5045744;28;20041;-57
2023/01/25 08:41:22;;;;;;;47.33;29.95;;;0.10;99.90;;;;;;5053877;28;20047;-56
2023/01/25 08:43:50;;;;;;;46.95;30.30;;;0.10;99.90;;;;;;5046166;28;20090;-58
2023/01/25 08:46:16;;;;;;;49.13;31.17;;;0.10;99.90;;;;;;5054720;28;20359;-57
2023/01/25 08:48:41;;;;;;;49.38;30.35;;;0.10;99.90;;;;;;5051351;28;20633;-57
2023/01/25 08:51:10;;;;;;;49.30;30.20;;;0.10;99.90;;;;;;5056806;28;20119;-57
2023/01/25 08:53:35;;;;;;;49.55;31.15;;;0.10;99.90;;;;;;5050367;28;20433;-57
2023/01/25 08:56:03;;;;;;;48.47;32.00;;;0.10;99.90;;;;;;5053808;28;20341;-54
2023/01/25 08:58:30;;;;;;;48.72;31.58;;;0.10;99.90;;;;;;5051649;28;20045;-56
2023/01/25 09:01:00;;;;;;;51.15;31.25;;;0.10;99.90;;;;;;5050191;28;20028;-55
2023/01/25 09:03:26;;;;;;;49.25;31.90;;;0.20;99.90;;;;;;5051465;28;20064;-58
2023/01/25 09:05:53;;;;;;;48.42;32.13;;;0.20;99.90;;;;;;5046864;28;20048;-57
2023/01/25 09:08:18;;;;;;;49.55;30.38;;;0.20;99.90;;;;;;5042746;28;20482;-54
2023/01/25 09:10:44;;;;;;;52.47;31.23;;;0.20;99.90;;;;;;5051925;28;20072;-56
2023/01/25 09:13:10;;;;;;;54.67;34.77;;;0.20;99.90;;;;;;5050998;28;20564;-57
2023/01/25 09:15:36;;;;;;;53.17;34.15;;;0.20;99.90;;;;;;5049327;28;20080;-59
2023/01/25 09:18:01;;;;;;;49.40;32.20;;;0.30;99.90;;;;;;5052326;28;20135;-55
2023/01/25 09:20:27;;;;;;;51.97;33.13;;;0.30;99.90;;;;;;5052590;28;20506;-58
2023/01/25 09:22:54;;;;;;;52.97;33.23;;;0.30;99.90;;;;;;5044469;28;20040;-56
2023/01/25 09:25:20;;;;;;;52.28;31.67;;;0.30;99.90;;;;;;5047578;28;20039;-58
2023/01/25 09:27:49;;;;;;;50.13;32.30;;;0.30;99.90;;;;;;5041213;28;20784;-56
2023/01/25 09:30:14;;;;;;;51.08;33.15;;;0.30;99.90;;;;;;5046114;28;20521;-58
2023/01/25 09:32:40;;;;;;;49.47;31.50;;;0.30;99.90;;;;;;5042021;28;20037;-59
2023/01/25 09:35:06;;;;;;;53.73;34.77;;;0.30;99.90;;;;;;5046594;28;20049;-59
2023/01/25 09:37:31;;;;;;;52.67;33.67;;;0.30;99.90;;;;;;5042304;28;20076;-60
2023/01/25 09:39:57;;;;;;;56.43;34.10;;;0.30;99.90;;;;;;5045495;28;20082;-55
2023/01/25 09:42:31;;;;;;;53.50;33.57;;;0.40;99.90;;;;;;5043889;28;20041;-55
2023/01/25 09:45:09;;;;;;;54.00;34.35;;;0.40;99.90;;;;;;5046095;28;20087;-59
2023/01/25 09:48:03;;;;;;;53.03;32.13;;;0.40;99.90;;;;;;5044499;28;20051;-55
2023/01/25 09:50:31;;;;;;;54.60;32.83;;;0.30;99.90;;;;;;5042983;28;20317;-56
2023/01/25 09:53:15;;;;;;;50.03;32.00;;;0.30;99.90;;;;;;5042009;28;20128;-60
2023/01/25 09:55:41;;;;;;;52.88;31.88;;;0.30;99.90;;;;;;5040339;28;20072;-59
2023/01/25 09:58:13;;;;;;;52.83;31.45;;;0.30;99.90;;;;;;5041996;28;20076;-57
2023/01/25 10:00:46;;;;;;;46.92;28.48;;;0.30;99.90;;;;;;5045049;28;20126;-58
2023/01/25 10:03:40;;;;;;;49.25;30.27;;;0.30;99.90;;;;;;5043372;28;20075;-58
2023/01/25 10:06:11;;;;;;;46.47;28.63;;;0.30;99.90;;;;;;5045811;28;20103;-59
2023/01/25 10:09:04;;;;;;;43.35;27.42;;;0.30;99.90;;;;;;5041847;28;20360;-56
2023/01/25 10:11:32;;;;;;;45.08;27.63;;;0.20;99.90;;;;;;5045714;28;20425;-56
2023/01/25 10:13:58;;;;;;;42.90;28.13;;;0.20;99.90;;;;;;5045066;28;20099;-60
2023/01/25 10:16:47;;;;;;;42.03;26.45;;;0.20;99.90;;;;;;5045603;28;20037;-58
2023/01/25 10:19:38;;;;;;;46.45;28.02;;;0.20;99.90;;;;;;5048950;28;20069;-60
2023/01/25 10:22:19;;;;;;;45.75;28.92;;;0.20;99.90;;;;;;5046570;28;20057;-58
2023/01/25 10:24:52;;;;;;;44.60;28.23;;;0.20;99.90;;;;;;5048555;28;20041;-56
2023/01/25 10:27:58;;;;;;;50.65;32.42;;;0.20;99.90;;;;;;5047569;28;20049;-56
2023/01/25 10:30:28;;;;;;;46.30;29.02;;;0.20;99.90;;;;;;5027509;28;20456;-59
2023/01/25 10:33:00;;;;;;;51.05;31.50;;;0.10;99.90;;;;;;5048840;28;20036;-59
2023/01/25 10:35:36;;;;;;;51.55;31.38;;;0.10;99.90;;;;;;5047346;28;20478;-61
2023/01/25 10:38:16;;;;;;;41.83;27.42;;;0.00;99.90;;;;;;5049416;28;20044;-56
2023/01/25 10:40:53;;;;;;;46.13;27.75;;;0.00;99.90;;;;;;5063894;28;20053;-60
2023/01/25 10:43:22;;;;;;;45.28;27.83;;;0.10;99.90;;;;;;5044429;28;20041;-60
2023/01/25 10:45:49;;;;;;;47.63;28.55;;;0.10;99.90;;;;;;5046301;28;20524;-58
2023/01/25 10:48:26;;;;;;;50.33;28.88;;;0.10;99.90;;;;;;5048072;28;20509;-55
2023/01/25 10:50:53;;;;;;;45.67;28.52;;;0.20;99.90;;;;;;5052513;28;20047;-61
2023/01/25 10:53:34;;;;;;;45.10;27.33;;;0.10;99.90;;;;;;5043675;28;20435;-61
2023/01/25 10:56:10;;;;;;;50.85;30.77;;;0.10;99.90;;;;;;5045655;28;20043;-59
2023/01/25 10:58:39;;;;;;;51.13;29.52;;;0.10;99.90;;;;;;5048618;28;20033;-59
2023/01/25 11:01:24;;;;;;;56.03;32.47;;;0.10;99.90;;;;;;5043537;28;20437;-60
2023/01/25 11:03:50;;;;;;;50.50;31.08;;;0.10;99.90;;;;;;5052889;28;20033;-58
2023/01/25 11:06:34;;;;;;;53.23;30.10;;;0.10;99.90;;;;;;5053005;28;20059;-58
2023/01/25 11:09:20;;;;;;;55.22;31.60;;;0.10;99.90;;;;;;5057296;28;20041;-57
2023/01/25 11:12:17;;;;;;;46.38;27.85;;;0.10;99.90;;;;;;5045672;28;20037;-56
2023/01/25 11:14:43;;;;;;;49.88;29.13;;;0.10;99.90;;;;;;5052370;28;20059;-58
2023/01/25 11:17:20;;;;;;;48.97;29.50;;;0.10;99.90;;;;;;5050003;28;20040;-57
2023/01/25 11:19:46;;;;;;;;;;;0.10;99.90;;;;;;5051128;28;20520;-58
2023/01/25 11:22:17;;;;;;;50.13;28.35;;;0.10;99.90;;;;;;5055206;28;20011;-58
2023/01/25 11:24:43;;;;;;;47.42;27.83;;;0.00;99.90;;;;;;5051896;28;20446;-58
2023/01/25 11:27:18;;;;;;;48.17;26.13;;;0.00;99.90;;;;;;5052289;28;20047;-58
2023/01/25 11:29:45;;;;;;;48.13;25.92;;;0.00;99.90;;;;;;5047803;28;20506;-57
2023/01/25 11:32:20;;;;;;;50.78;29.60;;;0.00;99.90;;;;;;5054259;28;20174;-55
2023/01/25 11:34:46;;;;;;;49.58;29.02;;;0.00;99.90;;;;;;5047819;28;20425;-58
2023/01/25 11:37:45;;;;;;;45.70;27.65;;;0.00;99.90;;;;;;5053710;28;20040;-60
2023/01/25 11:40:26;;;;;;;47.50;28.05;;;0.00;99.90;;;;;;5055598;28;20579;-57
2023/01/25 11:42:58;;;;;;;45.67;26.63;;;0.00;99.90;;;;;;5050482;28;20053;-57
2023/01/25 11:46:05;;;;;;;49.22;29.05;;;0.00;99.90;;;;;;5053272;28;20044;-61
2023/01/25 11:48:49;;;;;;;42.08;25.67;;;-0.10;99.90;;;;;;4994605;28;20504;-55
2023/01/25 11:51:24;;;;;;;48.00;28.48;;;-0.10;99.90;;;;;;5043196;28;20093;-57
2023/01/25 11:54:27;;;;;;;46.58;27.65;;;-0.10;99.90;;;;;;5045764;28;20120;-59
2023/01/25 11:57:22;;;;;;;46.40;27.20;;;-0.10;99.90;;;;;;5062523;28;20041;-59
2023/01/25 11:59:55;;;;;;;43.92;26.05;;;-0.10;99.90;;;;;;5044582;28;20040;-56
2023/01/25 12:02:30;;;;;;;47.25;28.45;;;-0.10;99.90;;;;;;5041997;28;20081;-59
2023/01/25 12:04:59;;;;;;;47.60;27.75;;;-0.10;99.90;;;;;;5044881;28;20040;-56
2023/01/25 12:07:39;;;;;;;51.55;30.38;;;-0.10;99.90;;;;;;5045793;28;20060;-60
2023/01/25 12:10:35;;;;;;;45.63;25.70;;;-0.10;99.90;;;;;;5047704;28;20043;-59
2023/01/25 12:13:18;;;;;;;48.85;28.00;;;0.00;99.90;;;;;;5049151;28;20131;-57
2023/01/25 12:15:59;;;;;;;43.72;25.67;;;0.00;99.90;;;;;;5049350;28;20052;-59
2023/01/25 12:18:45;;;;;;;45.83;27.85;;;0.00;99.90;;;;;;5050543;28;20072;-56
2023/01/25 12:21:35;;;;;;;43.17;26.95;;;0.00;99.90;;;;;;5043869;28;20462;-56
2023/01/25 12:24:36;;;;;;;47.33;27.40;;;0.00;99.90;;;;;;5045190;28;20055;-57
2023/01/25 12:27:25;;;;;;;51.10;28.17;;;-0.10;99.90;;;;;;5047333;28;20500;-59
2023/01/25 12:29:56;;;;;;;45.50;26.33;;;0.00;99.90;;;;;;5046116;28;20048;-59
2023/01/25 12:32:34;;;;;;;48.92;29.45;;;-0.10;99.90;;;;;;5046158;28;20048;-57
2023/01/25 12:35:29;;;;;;;48.40;28.02;;;-0.10;99.90;;;;;;5048277;28;20415;-55
2023/01/25 12:38:00;;;;;;;46.47;27.77;;;0.00;99.90;;;;;;5051231;28;20051;-58
2023/01/25 12:40:49;;;;;;;50.42;28.90;;;0.00;99.90;;;;;;5045652;28;20032;-58
2023/01/25 12:43:20;;;;;;;63.03;32.60;;;0.00;99.90;;;;;;5044566;28;20402;-56
2023/01/25 12:45:47;;;;;;;54.13;30.73;;;0.00;99.90;;;;;;5044833;28;20083;-57
2023/01/25 12:48:21;;;;;;;52.22;30.30;;;0.00;99.90;;;;;;5047019;28;20493;-58
2023/01/25 12:50:57;;;;;;;54.10;31.90;;;0.00;99.90;;;;;;5047698;28;20047;-58
2023/01/25 12:53:32;;;;;;;52.22;30.83;;;-0.10;99.90;;;;;;5049299;28;20458;-60